West Descanso (73, 78, 625) Station Data

Red Flag Warning: No
Fire Weather Zone: 258
SDGE Region: Mountain Empire
Lat/Lon: 32.849/-116.63

Observations

Time Wind Speed/Gust Temp(F) RH Fuel Moist Fuel Temp(F) Dewpt(F) Tmax(F) Tmin(F) Accum Precip 10-min Precip SL Press(mb)
4/29 11:50pm 343 5 G 9 50° 27% - - 18° 66.7° 49.4° - - -
4/29 11:40pm 349 5 G 7 51° 27% - - 18° 66.7° 49.4° - - -
4/29 11:30pm 340 5 G 7 50° 29% - - 19° 66.7° 49.4° - - -
4/29 11:20pm 350 5 G 7 50° 29% - - 19° 66.7° 49.4° - - -
4/29 11:10pm 346 5 G 6 50° 29% - - 19° 66.7° 49.4° - - -
4/29 11:00pm 348 5 G 7 51° 29% - - 20° 66.7° 49.9° - - -
4/29 10:50pm 342 5 G 7 50° 31% - - 20° 66.7° 49.9° - - -
4/29 10:40pm 341 5 G 7 51° 30% - - 21° 66.7° 50° - - -
4/29 10:30pm 344 5 G 7 51° 30% - - 20° 66.7° 50° - - -
4/29 10:20pm 347 5 G 7 51° 30% - - 20° 66.7° 50° - - -
4/29 10:10pm 346 5 G 7 50° 30% - - 20° 66.7° 50° - - -
4/29 10:00pm 355 4 G 7 51° 30% - - 21° 66.7° 50.4° - - -
4/29 9:50pm 4 3 G 4 53° 29% - - 22° 66.7° 50.7° - - -
4/29 9:40pm 354 4 G 5 53° 30% - - 22° 66.7° 50.7° - - -
4/29 9:30pm 10 3 G 5 53° 30% - - 22° 66.7° 50.7° - - -
4/29 9:20pm 9 3 G 6 53° 30% - - 22° 66.7° 50.7° - - -
4/29 9:10pm 337 6 G 7 56° 27% - - 22° 66.7° 50.7° - - -
4/29 9:00pm 329 6 G 7 55° 27% - - 22° 66.7° 50.7° - - -
4/29 8:50pm 322 6 G 8 55° 28% - - 22° 66.7° 50.7° - - -
4/29 8:40pm 323 7 G 8 55° 27% - - 22° 66.7° 50.7° - - -
4/29 8:30pm 331 6 G 8 56° 27% - - 22° 66.7° 50.7° - - -
4/29 8:20pm 315 5 G 7 56° 25% - - 21° 66.7° 50.7° - - -
4/29 8:10pm 272 2 G 4 56° 24% - - 20° 66.7° 50.7° - - -
4/29 8:00pm 282 2 G 7 57° 23% - - 19° 66.7° 50.7° - - -
4/29 7:50pm 312 5 G 9 58° 22% - - 19° 66.7° 50.7° - - -
4/29 7:40pm 307 5 G 8 58° 21% - - 18° 66.7° 50.7° - - -
4/29 7:30pm 276 5 G 7 58° 21% - - 18° 66.7° 50.7° - - -
4/29 7:20pm 253 3 G 5 59° 21% - - 19° 66.7° 50.7° - - -
4/29 7:10pm 254 2 G 4 59° 21% - - 19° 66.7° 50.7° - - -
4/29 7:00pm 255 2 G 4 60° 21% - - 20° 66.7° 50.7° - - -
4/29 6:50pm 267 2 G 4 60° 20% - - 19° 66.7° 50.7° - - -
4/29 6:40pm 298 2 G 5 61° 19% - - 19° 66.7° 50.7° - - -
4/29 6:30pm 278 3 G 5 62° 18% - - 18° 66.7° 50.7° - - -
4/29 6:20pm 272 3 G 10 62° 17% - - 17° 66.7° 50.7° - - -
4/29 6:10pm 284 2 G 7 64° 16% - - 17° 66.7° 50.7° - - -
4/29 6:00pm 255 4 G 10 64° 16% - - 16° 66.7° 50.7° - - -
4/29 5:50pm 340 4 G 9 65° 12% - - 11° 66.7° 50.7° - - -
4/29 5:40pm 40 4 G 10 65° 11% - - 10° 66.7° 50.7° - - -
4/29 5:30pm 43 7 G 14 65° 11% - - 10° 66.7° 50.7° - - -
4/29 5:20pm 53 8 G 15 65° 11% - - 10° 66.7° 50.7° - - -
4/29 5:10pm 27 9 G 15 65° 11% - - 66.7° 50.7° - - -
4/29 5:00pm 25 9 G 16 66° 11% - - 66.7° 50.7° - - -
4/29 4:50pm 53 7 G 14 66° 11% - - 10° 66.7° 50.7° - - -
4/29 4:40pm 31 8 G 14 66° 11% - - 66.7° 50.7° - - -
4/29 4:30pm 27 9 G 16 66° 10% - - 66.7° 50.7° - - -
4/29 4:20pm 21 9 G 16 66° 11% - - 10° 66.7° 50.7° - - -
4/29 4:10pm 51 8 G 15 66° 11% - - 10° 66.7° 50.7° - - -
4/29 4:00pm 29 9 G 15 66° 11% - - 10° 66.7° 50.7° - - -
4/29 3:50pm 25 9 G 19 65° 11% - - 66.3° 50.7° - - -
4/29 3:40pm 36 10 G 15 65° 11% - - 66.3° 50.7° - - -
4/29 3:30pm 29 10 G 17 65° 11% - - 66.3° 50.7° - - -
4/29 3:20pm 35 9 G 17 65° 11% - - 66.3° 50.7° - - -
4/29 3:10pm 38 11 G 20 66° 11% - - 66.3° 50.7° - - -
4/29 3:00pm 37 10 G 17 65° 11% - - 10° 66.1° 50.7° - - -
4/29 2:50pm 38 11 G 18 65° 11% - - 65.8° 50.7° - - -
4/29 2:40pm 35 10 G 19 65° 11% - - 10° 65.8° 50.7° - - -
4/29 2:30pm 32 11 G 21 65° 11% - - 65.5° 50.7° - - -
4/29 2:20pm 31 10 G 17 65° 12% - - 10° 65.4° 50.7° - - -
4/29 2:10pm 36 8 G 15 64° 11% - - 65° 50.7° - - -
4/29 2:00pm 75 8 G 15 64° 13% - - 11° 65° 50.7° - - -
4/29 1:50pm 43 9 G 14 64° 12% - - 11° 65° 50.7° - - -
4/29 1:40pm 38 9 G 17 64° 11% - - 65° 50.7° - - -
4/29 1:30pm 25 10 G 18 63° 13% - - 12° 64.5° 50.7° - - -
4/29 1:20pm 39 10 G 17 64° 13% - - 11° 64.1° 50.7° - - -
4/29 1:10pm 63 8 G 16 63° 13% - - 12° 64° 50.7° - - -
4/29 1:00pm 39 11 G 18 63° 13% - - 11° 63.4° 50.7° - - -
4/29 12:50pm 37 11 G 22 62° 13% - - 10° 63.1° 50.7° - - -
4/29 12:40pm 38 13 G 23 62° 13% - - 10° 62.8° 50.7° - - -
4/29 12:30pm 35 12 G 20 62° 13% - - 11° 62.6° 50.7° - - -
4/29 12:20pm 35 13 G 25 62° 13% - - 11° 62.5° 50.7° - - -
4/29 12:10pm 38 13 G 22 62° 13% - - 11° 62.5° 50.7° - - -
4/29 12:00pm 40 14 G 23 61° 13% - - 10° 62.4° 50.7° - - -
4/29 11:50am 42 13 G 20 61° 13% - - 10° 62.4° 50.7° - - -
4/29 11:40am 43 13 G 20 61° 13% - - 10° 62.3° 50.7° - - -
4/29 11:30am 39 13 G 22 61° 13% - - 10° 62.3° 50.7° - - -
4/29 11:20am 49 14 G 25 61° 13% - - 61.7° 50.7° - - -
4/29 11:10am 51 14 G 24 61° 13% - - 10° 61.7° 50.7° - - -
4/29 11:00am 43 14 G 22 60° 13% - - 61.5° 50.7° - - -
4/29 10:50am 54 14 G 26 61° 12% - - 61.5° 50.7° - - -
4/29 10:40am 61 15 G 28 60° 12% - - 61.3° 50.7° - - -
4/29 10:30am 51 13 G 22 61° 13% - - 61.2° 50.7° - - -
4/29 10:20am 48 14 G 21 60° 12% - - 60.5° 50.7° - - -
4/29 10:10am 52 14 G 23 60° 12% - - 60.5° 50.7° - - -
4/29 10:00am 40 13 G 22 60° 12% - - 60.5° 50.7° - - -
4/29 9:50am 64 13 G 22 59° 12% - - 59.8° 50.7° - - -
4/29 9:40am 72 14 G 24 59° 12% - - 59.8° 50.7° - - -
4/29 9:30am 56 13 G 20 59° 13% - - 59.8° 50.7° - - -
4/29 9:20am 58 13 G 23 58° 13% - - 59° 50.7° - - -
4/29 9:10am 49 15 G 25 58° 13% - - 58.8° 50.7° - - -
4/29 9:00am 44 13 G 21 57° 14% - - 57.8° 50.7° - - -
4/29 8:50am 39 15 G 23 56° 14% - - 56.5° 50.7° - - -
4/29 8:40am 41 15 G 23 56° 14% - - 56.5° 50.7° - - -
4/29 8:30am 40 13 G 23 56° 15% - - 56.4° 50.7° - - -
4/29 8:20am 43 14 G 22 55° 15% - - 56.4° 50.7° - - -
4/29 8:10am 44 14 G 25 55° 15% - - 56.4° 50.7° - - -
4/29 8:00am 48 16 G 28 54° 15% - - 56.4° 50.7° - - -
4/29 7:50am 41 16 G 26 54° 15% - - 56.4° 50.7° - - -
4/29 7:40am 40 17 G 26 53° 14% - - 56.4° 50.7° - - -
4/29 7:30am 39 17 G 28 53° 14% - - 56.4° 50.7° - - -
4/29 7:20am 34 16 G 29 53° 14% - - 56.4° 50.7° - - -
4/29 7:10am 43 16 G 26 52° 14% - - 56.4° 50.7° - - -
4/29 7:00am 38 16 G 26 52° 14% - - 56.4° 50.7° - - -
4/29 6:50am 27 19 G 29 52° 14% - - 56.4° 50.7° - - -
4/29 6:40am 37 19 G 27 52° 14% - - 56.4° 50.7° - - -
4/29 6:30am 33 17 G 27 51° 15% - - 56.4° 50.7° - - -
4/29 6:20am 32 17 G 28 51° 15% - - 56.4° 50.7° - - -
4/29 6:10am 36 15 G 27 51° 15% - - 56.4° 50.7° - - -
4/29 6:00am 35 14 G 27 51° 15% - - 56.4° 50.7° - - -
4/29 5:50am 39 16 G 26 51° 14% - - 56.4° 51.1° - - -
4/29 5:40am 40 18 G 30 52° 14% - - 56.4° 51.4° - - -
4/29 5:30am 37 18 G 29 52° 14% - - 56.4° 51.4° - - -
4/29 5:20am 43 16 G 28 52° 14% - - 56.4° 51.4° - - -
4/29 5:10am 42 18 G 33 52° 14% - - 56.4° 51.8° - - -
4/29 5:00am 40 17 G 26 52° 14% - - 56.4° 51.9° - - -
4/29 4:50am 43 18 G 31 52° 14% - - 56.4° 52.1° - - -
4/29 4:40am 46 17 G 29 53° 14% - - 56.4° 52.2° - - -
4/29 4:30am 43 16 G 27 53° 14% - - 56.4° 52.4° - - -
4/29 4:20am 40 19 G 30 53° 14% - - 56.4° 52.4° - - -
4/29 4:10am 34 22 G 35 53° 14% - - 56.4° 52.4° - - -
4/29 4:00am 36 21 G 32 54° 14% - - 56.4° 52.4° - - -
4/29 3:50am 35 20 G 36 54° 14% - - 56.4° 52.4° - - -
4/29 3:40am 45 15 G 28 54° 15% - - 56.4° 52.4° - - -
4/29 3:30am 38 15 G 27 54° 15% - - 56.4° 52.4° - - -
4/29 3:20am 48 16 G 30 54° 15% - - 56.4° 52.4° - - -
4/29 3:10am 45 15 G 26 54° 15% - - 56.4° 52.4° - - -
4/29 3:00am 43 14 G 24 54° 15% - - 56.4° 52.4° - - -
4/29 2:50am 41 14 G 23 55° 14% - - 56.4° 52.4° - - -
4/29 2:40am 39 16 G 25 55° 14% - - 56.4° 52.4° - - -
4/29 2:30am 41 16 G 28 55° 14% - - 56.4° 52.4° - - -
4/29 2:20am 42 16 G 25 55° 14% - - 56.4° 52.4° - - -
4/29 2:10am 35 18 G 30 56° 13% - - 56.4° 52.4° - - -
4/29 2:00am 38 17 G 31 56° 14% - - 56.4° 52.4° - - -
4/29 1:50am 33 18 G 28 56° 14% - - 56.4° 52.4° - - -
4/29 1:40am 38 16 G 25 56° 14% - - 56.4° 52.4° - - -
4/29 1:30am 36 17 G 29 56° 14% - - 56.3° 52.4° - - -
4/29 1:20am 36 16 G 28 55° 16% - - 55.9° 52.4° - - -
4/29 1:10am 34 14 G 25 54° 18% - - 12° 55.3° 52.4° - - -
4/29 1:00am 35 10 G 15 54° 19% - - 13° 55.3° 52.4° - - -
4/29 12:50am 40 9 G 14 54° 19% - - 13° 55.3° 52.4° - - -
4/29 12:40am 39 8 G 12 54° 20% - - 14° 55.3° 52.4° - - -
4/29 12:30am 27 8 G 11 53° 22% - - 16° 55.3° 52.4° - - -
4/29 12:20am 23 6 G 9 54° 22% - - 16° 55.3° 52.7° - - -
4/29 12:10am 26 6 G 10 54° 21% - - 15° 54.9° 53.7° - - -
4/29 12:00am 19 5 G 9 54° 23% - - 17° 67.7° 47.3° - - -
4/28 11:50pm 27 5 G 8 54° 24% - - 18° 67.7° 47.3° - - -
4/28 11:40pm 24 4 G 7 55° 24% - - 18° 67.7° 47.3° - - -
4/28 11:30pm 17 4 G 6 55° 26% - - 20° 67.7° 47.3° - - -
4/28 11:20pm 31 3 G 6 55° 29% - - 23° 67.7° 47.3° - - -
4/28 11:10pm 46 3 G 5 55° 36% - - 28° 67.7° 47.3° - - -
4/28 11:00pm 48 3 G 6 54° 42% - - 32° 67.7° 47.3° - - -
4/28 10:50pm 49 3 G 5 54° 47% - - 34° 67.7° 47.3° - - -
4/28 10:40pm 22 3 G 5 54° 48% - - 35° 67.7° 47.3° - - -
4/28 10:30pm 30 4 G 6 55° 48% - - 36° 67.7° 47.3° - - -
4/28 10:20pm 22 4 G 6 54° 51% - - 37° 67.7° 47.3° - - -
4/28 10:10pm 10 3 G 5 53° 56% - - 38° 67.7° 47.3° - - -
4/28 10:00pm 13 4 G 7 53° 56% - - 38° 67.7° 47.3° - - -
4/28 9:50pm 4 7 G 11 52° 58% - - 37° 67.7° 47.3° - - -
4/28 9:40pm 10 6 G 10 50° 60% - - 37° 67.7° 47.3° - - -
4/28 9:30pm 11 5 G 8 51° 57% - - 36° 67.7° 47.3° - - -
4/28 9:20pm 11 3 G 5 52° 54% - - 36° 67.7° 47.3° - - -
4/28 9:10pm 25 2 G 4 53° 50% - - 35° 67.7° 47.3° - - -
4/28 9:00pm 357 4 G 6 54° 48% - - 34° 67.7° 47.3° - - -
4/28 8:50pm 352 4 G 5 54° 48% - - 34° 67.7° 47.3° - - -
4/28 8:40pm 6 3 G 4 53° 50% - - 35° 67.7° 47.3° - - -
4/28 8:30pm 352 5 G 6 54° 49% - - 35° 67.7° 47.3° - - -
4/28 8:20pm 335 6 G 7 54° 48% - - 35° 67.7° 47.3° - - -
4/28 8:10pm 327 5 G 7 54° 49% - - 35° 67.7° 47.3° - - -
4/28 8:00pm 332 5 G 7 54° 49% - - 35° 67.7° 47.3° - - -
4/28 7:50pm 316 4 G 5 54° 48% - - 35° 67.7° 47.3° - - -
4/28 7:40pm 314 3 G 5 54° 48% - - 35° 67.7° 47.3° - - -
4/28 7:30pm 311 3 G 5 55° 47% - - 35° 67.7° 47.3° - - -
4/28 7:20pm 316 3 G 5 56° 47% - - 36° 67.7° 47.3° - - -
4/28 7:10pm 275 2 G 5 56° 47% - - 37° 67.7° 47.3° - - -
4/28 7:00pm 304 2 G 5 57° 46% - - 37° 67.7° 47.3° - - -
4/28 6:50pm 275 1 G 5 58° 46% - - 37° 67.7° 47.3° - - -
4/28 6:40pm 293 3 G 7 58° 48% - - 38° 67.7° 47.3° - - -
4/28 6:30pm 306 3 G 6 59° 49% - - 39° 67.7° 47.3° - - -
4/28 6:20pm 328 1 G 5 59° 49% - - 40° 67.7° 47.3° - - -
4/28 6:10pm 311 2 G 6 60° 49% - - 40° 67.7° 47.3° - - -
4/28 6:00pm 315 3 G 7 60° 49% - - 40° 67.7° 47.3° - - -